createdAt,value
2019-01-03T00:01:49.310Z,18.30
2019-01-03T00:04:39.607Z,14.23
2019-01-03T00:07:29.169Z,14.37
2019-01-03T00:10:32.422Z,17.80
2019-01-03T00:13:19.818Z,18.03
2019-01-03T00:16:06.179Z,23.43
2019-01-03T00:18:52.818Z,22.37
2019-01-03T00:21:52.885Z,18.00
2019-01-03T00:24:31.795Z,18.80
2019-01-03T00:27:18.562Z,16.83
2019-01-03T00:30:05.187Z,15.23
2019-01-03T00:32:47.427Z,12.43
2019-01-03T00:35:33.717Z,17.23
2019-01-03T00:38:20.324Z,17.50
2019-01-03T00:41:14.515Z,13.07
2019-01-03T00:43:59.700Z,11.53
2019-01-03T00:46:58.502Z,14.37
2019-01-03T00:50:04.862Z,12.87
2019-01-03T00:52:58.650Z,16.73
2019-01-03T00:55:46.330Z,13.97
2019-01-03T00:58:32.658Z,14.53
2019-01-03T01:01:26.579Z,15.10
2019-01-03T01:04:13.225Z,13.07
2019-01-03T01:06:59.723Z,17.00
2019-01-03T01:09:46.348Z,15.53
2019-01-03T01:12:37.325Z,14.17
2019-01-03T01:15:23.928Z,14.27
2019-01-03T01:18:12.530Z,12.00
2019-01-03T01:20:56.159Z,11.47
2019-01-03T01:23:43.553Z,12.07
2019-01-03T01:26:43.483Z,14.50
2019-01-03T01:29:30.095Z,15.30
2019-01-03T01:32:17.072Z,17.27
2019-01-03T01:35:08.325Z,16.43
2019-01-03T01:37:55.049Z,16.60
2019-01-03T01:40:42.943Z,16.70
2019-01-03T01:43:28.532Z,16.63
2019-01-03T01:46:17.098Z,16.53
2019-01-03T01:49:04.976Z,18.33
2019-01-03T01:51:57.466Z,21.03
2019-01-03T01:54:46.169Z,17.03
2019-01-03T01:57:38.277Z,13.50
2019-01-03T02:00:30.599Z,16.77
2019-01-03T02:03:17.348Z,16.87
2019-01-03T02:06:03.980Z,15.93
2019-01-03T02:08:50.950Z,13.90
2019-01-03T02:11:33.143Z,16.53
2019-01-03T02:14:21.966Z,19.10
2019-01-03T02:17:08.835Z,19.87
2019-01-03T02:19:57.352Z,16.17
2019-01-03T02:22:48.403Z,12.87
2019-01-03T02:25:36.433Z,17.10
2019-01-03T02:28:28.844Z,19.10
2019-01-03T02:31:16.791Z,12.97
2019-01-03T02:34:10.304Z,15.27
2019-01-03T02:36:56.820Z,10.63
2019-01-03T02:39:33.788Z,14.80
2019-01-03T02:42:12.943Z,12.00
2019-01-03T02:45:03.009Z,15.03
2019-01-03T02:47:50.913Z,11.13
2019-01-03T02:50:32.452Z,15.43
2019-01-03T02:53:18.866Z,13.87
2019-01-03T02:56:05.539Z,10.50
2019-01-03T02:58:58.298Z,17.40
2019-01-03T03:01:46.188Z,15.50
2019-01-03T03:04:32.783Z,18.47
2019-01-03T03:07:25.089Z,13.80
2019-01-03T03:10:16.281Z,13.37
2019-01-03T03:13:00.257Z,19.47
2019-01-03T03:15:59.758Z,13.13
2019-01-03T03:18:46.427Z,18.23
2019-01-03T03:21:37.527Z,10.73
2019-01-03T03:24:36.668Z,13.17
2019-01-03T03:27:23.332Z,9.70
2019-01-03T03:30:17.336Z,11.50
2019-01-03T03:33:14.110Z,12.80
2019-01-03T03:36:09.767Z,16.50
2019-01-03T03:39:09.723Z,17.20
2019-01-03T03:42:03.475Z,16.00
2019-01-03T03:44:56.647Z,10.60
2019-01-03T03:47:44.510Z,16.97
2019-01-03T03:50:31.173Z,13.90
2019-01-03T03:53:16.349Z,17.33
2019-01-03T03:55:56.532Z,16.67
2019-01-03T03:58:50.584Z,16.63
2019-01-03T04:01:50.728Z,19.27
2019-01-03T04:04:47.421Z,25.13
2019-01-03T04:07:33.744Z,11.47
2019-01-03T04:10:23.453Z,13.60
2019-01-03T04:13:08.106Z,16.33
2019-01-03T04:15:54.494Z,24.70
2019-01-03T04:18:43.694Z,14.63
2019-01-03T04:21:34.354Z,18.53
2019-01-03T04:24:20.667Z,23.43
2019-01-03T04:27:11.258Z,16.43
2019-01-03T04:29:57.882Z,19.00
2019-01-03T04:32:44.515Z,20.27
2019-01-03T04:35:42.637Z,22.87
2019-01-03T04:38:29.314Z,15.23
2019-01-03T04:41:17.186Z,22.17
2019-01-03T04:44:04.128Z,15.07
2019-01-03T04:46:55.142Z,18.10
2019-01-03T04:49:46.885Z,17.53
2019-01-03T04:52:45.122Z,21.03
2019-01-03T04:55:31.794Z,16.30
2019-01-03T04:58:19.858Z,25.83
2019-01-03T05:01:07.844Z,19.23
2019-01-03T05:03:59.140Z,21.80
2019-01-03T05:06:49.406Z,20.03
2019-01-03T05:09:36.173Z,17.63
2019-01-03T05:12:29.842Z,23.00
2019-01-03T05:15:14.185Z,20.83
2019-01-03T05:18:02.051Z,23.37
2019-01-03T05:20:48.386Z,19.90
2019-01-03T05:23:39.149Z,25.27
2019-01-03T05:26:28.186Z,22.83
2019-01-03T05:29:14.602Z,23.70
2019-01-03T05:32:01.314Z,24.17
2019-01-03T05:34:58.445Z,32.57
2019-01-03T05:37:38.614Z,22.50
2019-01-03T05:40:25.202Z,22.40
2019-01-03T05:43:12.207Z,26.43
2019-01-03T05:45:58.775Z,38.53
2019-01-03T05:48:55.814Z,26.03
2019-01-03T05:51:42.627Z,32.07
2019-01-03T05:54:29.110Z,29.27
2019-01-03T05:57:23.615Z,35.43
2019-01-03T06:00:10.515Z,31.27
2019-01-03T06:03:03.587Z,26.73
2019-01-03T06:05:51.725Z,33.20
2019-01-03T06:08:38.534Z,28.20
2019-01-03T06:11:14.138Z,28.60
2019-01-03T06:14:01.130Z,33.47
2019-01-03T06:16:58.271Z,32.97
2019-01-03T06:19:37.857Z,35.50
2019-01-03T06:22:31.978Z,33.10
2019-01-03T06:25:18.347Z,36.20
2019-01-03T06:28:14.523Z,35.80
2019-01-03T06:31:08.306Z,28.13
2019-01-03T06:34:00.865Z,32.53
2019-01-03T06:36:47.347Z,35.87
2019-01-03T06:39:35.213Z,35.50
2019-01-03T06:42:22.218Z,33.50
2019-01-03T06:45:09.131Z,47.60
2019-01-03T06:47:55.754Z,43.53
2019-01-03T06:50:42.446Z,39.90
2019-01-03T06:53:36.569Z,48.27
2019-01-03T06:56:30.481Z,45.30
2019-01-03T06:59:17.414Z,41.70
2019-01-03T07:02:09.195Z,39.03
2019-01-03T07:05:03.422Z,42.03
2019-01-03T07:07:50.563Z,34.57
2019-01-03T07:10:37.258Z,39.80
2019-01-03T07:13:23.990Z,39.30
2019-01-03T07:16:15.006Z,41.13
2019-01-03T07:19:06.338Z,44.63
2019-01-03T07:21:54.442Z,40.07
2019-01-03T07:24:39.814Z,45.63
2019-01-03T07:27:26.278Z,37.23
2019-01-03T07:30:20.305Z,40.20
2019-01-03T07:33:13.941Z,36.37
2019-01-03T07:36:02.873Z,41.63
2019-01-03T07:39:05.639Z,38.70
2019-01-03T07:41:50.675Z,42.83
2019-01-03T07:44:37.302Z,41.37
2019-01-03T07:47:19.613Z,44.03
2019-01-03T07:50:08.607Z,37.60
2019-01-03T07:52:55.077Z,45.70
2019-01-03T07:55:46.051Z,41.13
2019-01-03T07:58:39.810Z,40.40
2019-01-03T08:01:26.245Z,38.13
2019-01-03T08:04:09.966Z,49.40
2019-01-03T08:06:55.687Z,51.53
2019-01-03T08:09:42.337Z,42.73
2019-01-03T08:12:29.015Z,44.73
2019-01-03T08:15:15.822Z,49.00
2019-01-03T08:18:03.685Z,45.33
2019-01-03T08:20:55.021Z,41.13
2019-01-03T08:23:50.069Z,35.90
2019-01-03T08:26:36.734Z,34.37
2019-01-03T08:29:23.656Z,50.13
2019-01-03T08:32:10.223Z,38.83
2019-01-03T08:34:56.785Z,42.37
2019-01-03T08:37:43.568Z,46.47
2019-01-03T08:40:44.582Z,39.20
2019-01-03T08:43:38.330Z,53.33
2019-01-03T08:46:25.014Z,43.57
2019-01-03T08:49:24.990Z,51.70
2019-01-03T08:52:11.593Z,59.50
2019-01-03T08:55:08.599Z,66.33
2019-01-03T08:57:55.132Z,51.53
2019-01-03T09:00:51.453Z,46.37
2019-01-03T09:03:57.783Z,45.53
2019-01-03T09:06:44.413Z,45.40
2019-01-03T09:09:35.346Z,43.77
2019-01-03T09:12:29.086Z,46.53
2019-01-03T09:15:09.968Z,40.90
2019-01-03T09:17:48.400Z,41.37
2019-01-03T09:20:40.114Z,49.20
2019-01-03T09:23:31.244Z,44.30
2019-01-03T09:26:16.897Z,36.10
2019-01-03T09:29:04.779Z,40.43
2019-01-03T09:31:55.074Z,37.23
2019-01-03T09:34:52.901Z,41.23
2019-01-03T09:37:39.446Z,35.67
2019-01-03T09:40:30.715Z,31.90
2019-01-03T09:43:20.925Z,32.87
2019-01-03T09:45:49.690Z,33.80
2019-01-03T09:48:18.487Z,38.43
2019-01-03T09:50:47.253Z,39.63
2019-01-03T09:53:16.426Z,34.67
2019-01-03T09:55:45.206Z,31.43
2019-01-03T09:58:14.281Z,37.50
2019-01-03T10:00:43.058Z,33.10
2019-01-03T10:03:12.233Z,33.83
2019-01-03T10:05:41.010Z,32.73
2019-01-03T10:08:09.789Z,28.50
2019-01-03T10:10:38.646Z,30.10
2019-01-03T10:13:07.711Z,28.47
2019-01-03T10:15:36.557Z,23.37
2019-01-03T10:18:05.325Z,33.10
2019-01-03T10:20:34.100Z,42.77
2019-01-03T10:23:02.950Z,33.90
2019-01-03T10:25:31.738Z,25.37
2019-01-03T10:28:00.769Z,23.50
2019-01-03T10:30:29.837Z,20.67
2019-01-03T10:32:58.648Z,23.73
2019-01-03T10:35:27.468Z,22.97
2019-01-03T10:37:56.237Z,24.23
2019-01-03T10:40:25.030Z,23.80
2019-01-03T10:42:53.801Z,20.17
2019-01-03T10:45:22.593Z,25.03
2019-01-03T10:47:51.379Z,23.97
2019-01-03T10:50:20.166Z,29.10
2019-01-03T10:52:49.325Z,25.27
2019-01-03T10:55:18.886Z,24.17
2019-01-03T10:57:47.746Z,25.70
2019-01-03T11:00:16.682Z,26.07
2019-01-03T11:02:45.465Z,26.67
2019-01-03T11:05:14.233Z,23.23
2019-01-03T11:07:43.035Z,31.23
2019-01-03T11:10:11.873Z,28.27
2019-01-03T11:12:40.661Z,31.33
2019-01-03T11:15:09.496Z,32.80
2019-01-03T11:17:38.280Z,28.57
2019-01-03T11:20:07.779Z,30.40
2019-01-03T11:22:36.557Z,35.40
2019-01-03T11:25:05.637Z,26.90
2019-01-03T11:27:34.770Z,33.13
2019-01-03T11:30:03.782Z,27.60
2019-01-03T11:32:32.570Z,25.70
2019-01-03T11:35:01.342Z,31.20
2019-01-03T11:37:30.130Z,31.07
2019-01-03T11:39:58.970Z,25.03
2019-01-03T11:42:27.774Z,20.03
2019-01-03T11:44:56.544Z,22.33
2019-01-03T11:47:25.326Z,20.53
2019-01-03T11:49:54.094Z,19.47
2019-01-03T11:52:22.882Z,19.83
2019-01-03T11:54:51.654Z,20.47
2019-01-03T11:57:20.524Z,30.50
2019-01-03T11:59:49.281Z,21.27
2019-01-03T12:02:18.374Z,20.23
2019-01-03T12:04:47.196Z,23.53
2019-01-03T12:07:15.982Z,24.30
2019-01-03T12:09:44.769Z,47.63
2019-01-03T12:12:13.687Z,40.00
2019-01-03T12:14:42.462Z,30.87
2019-01-03T12:17:11.533Z,30.13
2019-01-03T12:19:40.316Z,34.67
2019-01-03T12:22:09.505Z,40.03
2019-01-03T12:24:38.285Z,37.90
2019-01-03T12:27:07.058Z,25.60
2019-01-03T12:29:36.180Z,25.80
2019-01-03T12:32:04.954Z,25.67
2019-01-03T12:34:33.742Z,23.57
2019-01-03T12:37:02.535Z,24.13
2019-01-03T12:39:31.295Z,24.07
2019-01-03T12:42:00.083Z,21.17
2019-01-03T12:44:29.277Z,18.03
2019-01-03T12:46:58.059Z,19.07
2019-01-03T12:49:26.841Z,18.10
2019-01-03T12:51:55.953Z,21.80
2019-01-03T12:54:24.734Z,22.73
2019-01-03T12:56:53.502Z,20.10
2019-01-03T12:59:22.293Z,19.03
2019-01-03T13:01:51.070Z,18.93
2019-01-03T13:04:19.905Z,14.30
2019-01-03T13:06:48.758Z,15.63
2019-01-03T13:09:19.514Z,19.00
2019-01-03T13:11:48.914Z,13.27
2019-01-03T13:14:17.679Z,13.73
2019-01-03T13:16:46.637Z,11.90
2019-01-03T13:19:15.405Z,15.10
2019-01-03T13:21:44.758Z,14.10
2019-01-03T13:24:13.533Z,13.43
2019-01-03T13:26:42.327Z,15.40
2019-01-03T13:29:11.177Z,13.63
2019-01-03T13:31:40.041Z,13.87
2019-01-03T13:34:08.966Z,11.63
2019-01-03T13:36:38.169Z,8.73
2019-01-03T13:39:07.862Z,13.30
2019-01-03T13:41:36.771Z,10.33
2019-01-03T13:44:05.651Z,9.90
2019-01-03T13:46:34.513Z,11.53
2019-01-03T13:49:03.425Z,12.47
2019-01-03T13:51:32.242Z,11.87
2019-01-03T13:54:01.117Z,11.93
2019-01-03T13:56:30.033Z,13.03
2019-01-03T13:58:59.109Z,8.90
2019-01-03T14:01:28.030Z,12.03
2019-01-03T14:03:56.918Z,15.87
2019-01-03T14:06:25.874Z,12.23
2019-01-03T14:08:54.750Z,12.40
2019-01-03T14:11:23.545Z,8.53
2019-01-03T14:13:52.385Z,10.07
2019-01-03T14:16:21.360Z,9.90
2019-01-03T14:18:50.265Z,11.43
2019-01-03T14:21:19.123Z,15.93
2019-01-03T14:23:48.226Z,13.93
2019-01-03T14:26:17.198Z,26.57
2019-01-03T14:28:46.320Z,19.27
2019-01-03T14:31:15.093Z,20.47
2019-01-03T14:33:43.949Z,13.90
2019-01-03T14:36:12.735Z,17.70
2019-01-03T14:38:41.679Z,15.67
2019-01-03T14:41:10.482Z,14.90
2019-01-03T14:43:39.310Z,13.10
2019-01-03T14:46:08.256Z,22.43
2019-01-03T14:48:37.233Z,15.50
2019-01-03T14:51:06.067Z,17.53
2019-01-03T14:53:34.857Z,16.57
2019-01-03T14:56:03.706Z,44.20
2019-01-03T14:58:32.532Z,28.47
2019-01-03T15:01:01.309Z,26.77
2019-01-03T15:03:30.197Z,24.93
2019-01-03T15:05:59.357Z,18.63
2019-01-03T15:08:28.149Z,18.07
2019-01-03T15:10:57.022Z,16.73
2019-01-03T15:13:25.825Z,19.03
2019-01-03T15:15:54.604Z,24.23
2019-01-03T15:18:23.381Z,18.90
2019-01-03T15:20:52.548Z,19.40
2019-01-03T15:23:21.427Z,15.57
2019-01-03T15:25:50.338Z,12.43
2019-01-03T15:28:19.093Z,22.77
2019-01-03T15:30:47.894Z,16.03
2019-01-03T15:33:16.965Z,19.47
2019-01-03T15:35:45.833Z,19.90
2019-01-03T15:38:14.606Z,10.63
2019-01-03T15:40:43.507Z,110.57
2019-01-03T15:43:12.285Z,112.23
2019-01-03T15:45:41.318Z,19.73
2019-01-03T15:48:10.082Z,29.80
2019-01-03T15:50:39.121Z,17.90
2019-01-03T15:53:07.903Z,14.07
2019-01-03T15:55:36.715Z,16.87
2019-01-03T15:58:05.486Z,14.97
2019-01-03T16:00:34.421Z,13.53
2019-01-03T16:03:03.199Z,16.30
2019-01-03T16:05:32.157Z,15.50
2019-01-03T16:08:00.970Z,15.73
2019-01-03T16:10:29.871Z,16.37
2019-01-03T16:12:58.858Z,15.57
2019-01-03T16:15:27.930Z,18.00
2019-01-03T16:17:56.716Z,13.23
2019-01-03T16:20:25.735Z,16.50
2019-01-03T16:22:54.691Z,17.67
2019-01-03T16:25:23.646Z,13.80
2019-01-03T16:27:52.436Z,16.67
2019-01-03T16:30:21.230Z,19.00
2019-01-03T16:32:50.013Z,18.77
2019-01-03T16:35:18.798Z,19.10
2019-01-03T16:37:47.902Z,18.03
2019-01-03T16:40:16.787Z,17.13
2019-01-03T16:42:45.621Z,21.23
2019-01-03T16:45:15.026Z,18.17
2019-01-03T16:47:43.905Z,15.20
2019-01-03T16:50:15.070Z,22.57
2019-01-03T16:52:43.985Z,21.00
2019-01-03T16:55:13.050Z,28.00
2019-01-03T16:57:42.004Z,23.93
2019-01-03T17:00:12.542Z,28.03
2019-01-03T17:02:41.429Z,23.27
2019-01-03T17:05:10.364Z,25.13
2019-01-03T17:07:39.436Z,23.47
2019-01-03T17:10:11.519Z,25.37
2019-01-03T17:12:40.389Z,17.60
2019-01-03T17:15:09.431Z,23.23
2019-01-03T17:17:38.205Z,54.33
2019-01-03T17:20:08.477Z,30.50
2019-01-03T17:22:37.536Z,27.20
2019-01-03T17:25:08.312Z,29.63
2019-01-03T17:27:37.104Z,29.03
2019-01-03T17:30:06.685Z,29.93
2019-01-03T17:32:35.466Z,28.70
2019-01-03T17:35:04.873Z,26.20
2019-01-03T17:37:33.654Z,25.97
2019-01-03T17:40:02.460Z,24.93
2019-01-03T17:42:31.319Z,33.63
2019-01-03T17:45:00.396Z,38.93
2019-01-03T17:47:29.174Z,41.43
2019-01-03T17:49:57.972Z,43.83
2019-01-03T17:52:27.205Z,34.77
2019-01-03T17:54:56.127Z,33.30
2019-01-03T17:57:25.056Z,48.93
2019-01-03T17:59:53.949Z,46.23
2019-01-03T18:02:23.091Z,49.00
2019-01-03T18:04:51.972Z,47.37
2019-01-03T18:07:20.886Z,43.23
2019-01-03T18:09:49.686Z,38.97
2019-01-03T18:12:19.345Z,34.67
2019-01-03T18:14:48.416Z,41.03
2019-01-03T18:17:17.240Z,40.90
2019-01-03T18:19:46.363Z,59.23
2019-01-03T18:22:15.421Z,41.50
2019-01-03T18:24:44.297Z,43.70
2019-01-03T18:27:13.126Z,39.60
2019-01-03T18:29:41.902Z,53.07
2019-01-03T18:32:10.830Z,43.37
2019-01-03T18:34:39.700Z,50.07
2019-01-03T18:37:08.484Z,50.80
2019-01-03T18:39:37.750Z,40.50
2019-01-03T18:42:06.797Z,42.87
2019-01-03T18:44:35.699Z,36.23
2019-01-03T18:47:04.576Z,34.77
2019-01-03T18:49:33.438Z,32.30
2019-01-03T18:52:02.445Z,42.13
2019-01-03T18:54:31.507Z,40.53
2019-01-03T18:57:00.405Z,54.87
2019-01-03T18:59:29.245Z,43.73
2019-01-03T19:01:58.214Z,46.23
2019-01-03T19:04:27.355Z,48.03
2019-01-03T19:06:56.212Z,41.80
2019-01-03T19:09:25.026Z,38.17
2019-01-03T19:11:53.937Z,55.00
2019-01-03T19:14:22.705Z,62.03
2019-01-03T19:16:51.578Z,132.47
2019-01-03T19:19:20.438Z,72.07
2019-01-03T19:21:49.325Z,47.47
2019-01-03T19:24:18.284Z,35.43
2019-01-03T19:26:47.099Z,33.00
2019-01-03T19:29:15.961Z,30.13
2019-01-03T19:31:44.771Z,35.57
2019-01-03T19:34:13.706Z,35.70
2019-01-03T19:36:42.751Z,45.53
2019-01-03T19:39:11.929Z,32.43
2019-01-03T19:41:40.990Z,27.43
2019-01-03T19:44:09.880Z,30.03
2019-01-03T19:46:38.664Z,21.60
2019-01-03T19:49:07.497Z,22.90
2019-01-03T19:51:36.636Z,19.43
2019-01-03T19:54:05.457Z,31.80
2019-01-03T19:56:35.461Z,33.77
2019-01-03T19:59:04.453Z,32.77
2019-01-03T20:01:33.858Z,28.23
2019-01-03T20:04:03.091Z,23.10
2019-01-03T20:06:32.232Z,22.97
2019-01-03T20:09:01.135Z,28.37
2019-01-03T20:11:30.292Z,31.93
2019-01-03T20:13:59.065Z,37.03
2019-01-03T20:16:28.265Z,51.90
2019-01-03T20:18:57.055Z,43.27
2019-01-03T20:21:26.250Z,42.37
2019-01-03T20:23:55.029Z,26.27
2019-01-03T20:26:23.827Z,17.77
2019-01-03T20:28:52.878Z,26.03
2019-01-03T20:31:21.743Z,28.73
2019-01-03T20:33:50.520Z,24.63
2019-01-03T20:36:19.935Z,22.97
2019-01-03T20:38:49.359Z,28.60
2019-01-03T20:41:18.593Z,25.63
2019-01-03T20:43:47.526Z,21.67
2019-01-03T20:46:16.401Z,22.63
2019-01-03T20:48:45.277Z,28.03
2019-01-03T20:51:14.142Z,29.80
2019-01-03T20:53:43.014Z,29.73
2019-01-03T20:56:12.210Z,203.70
2019-01-03T20:58:40.966Z,51.37
2019-01-03T21:01:10.120Z,46.97
2019-01-03T21:03:38.906Z,49.77
2019-01-03T21:06:07.817Z,20.23
2019-01-03T21:08:36.618Z,22.43
2019-01-03T21:11:05.485Z,21.30
2019-01-03T21:13:34.266Z,21.23
2019-01-03T21:16:03.208Z,24.73
2019-01-03T21:18:32.290Z,22.20
2019-01-03T21:21:01.487Z,20.13
2019-01-03T21:23:30.598Z,30.53
2019-01-03T21:25:59.449Z,22.40
2019-01-03T21:28:28.313Z,17.70
2019-01-03T21:30:57.242Z,20.33
2019-01-03T21:33:26.198Z,18.40
2019-01-03T21:35:55.406Z,15.53
2019-01-03T21:38:24.276Z,19.40
2019-01-03T21:40:53.210Z,18.40
2019-01-03T21:43:22.028Z,17.40
2019-01-03T21:45:51.689Z,22.67
2019-01-03T21:48:20.730Z,24.57
2019-01-03T21:50:49.577Z,23.73
2019-01-03T21:53:18.448Z,21.60
2019-01-03T21:55:47.230Z,19.60
2019-01-03T21:58:16.017Z,20.47
2019-01-03T22:00:45.090Z,25.00
2019-01-03T22:03:13.880Z,27.43
2019-01-03T22:05:43.062Z,26.43
2019-01-03T22:08:11.921Z,25.23
2019-01-03T22:10:40.712Z,23.83
2019-01-03T22:13:09.514Z,22.57
2019-01-03T22:15:38.277Z,25.13
2019-01-03T22:18:07.063Z,20.87
2019-01-03T22:20:35.829Z,29.63
2019-01-03T22:23:04.665Z,29.30
2019-01-03T22:25:33.438Z,31.13
2019-01-03T22:28:02.601Z,33.33
2019-01-03T22:30:31.384Z,28.67
2019-01-03T22:33:00.165Z,24.97
2019-01-03T22:35:29.051Z,24.77
2019-01-03T22:37:57.842Z,25.47
2019-01-03T22:40:26.634Z,22.60
2019-01-03T22:42:55.414Z,26.63
2019-01-03T22:45:24.205Z,21.57
2019-01-03T22:47:52.986Z,24.97
2019-01-03T22:50:21.785Z,20.37
2019-01-03T22:52:50.629Z,16.63
2019-01-03T22:55:19.574Z,22.33
2019-01-03T22:57:48.352Z,15.63
2019-01-03T23:00:42.544Z,18.20
2019-01-03T23:03:11.398Z,21.20
2019-01-03T23:05:40.257Z,22.37
2019-01-03T23:08:09.031Z,28.83
2019-01-03T23:10:37.829Z,24.50
2019-01-03T23:13:06.907Z,30.43
2019-01-03T23:15:36.086Z,31.73
2019-01-03T23:18:04.886Z,41.57
2019-01-03T23:20:33.765Z,31.10
2019-01-03T23:23:02.533Z,28.50
2019-01-03T23:25:31.381Z,33.60
2019-01-03T23:28:00.178Z,30.93
2019-01-03T23:30:29.030Z,29.90
2019-01-03T23:32:57.826Z,33.90
2019-01-03T23:35:26.602Z,28.83
2019-01-03T23:37:55.394Z,34.70
2019-01-03T23:40:24.710Z,33.10
2019-01-03T23:42:53.569Z,32.63
2019-01-03T23:45:26.070Z,23.93
2019-01-03T23:47:56.713Z,22.47
2019-01-03T23:50:28.141Z,31.60
2019-01-03T23:52:57.007Z,25.43
2019-01-03T23:55:26.434Z,28.60
2019-01-03T23:57:55.545Z,28.43
